Salamandra — UBTF8 — position and weather

sailwx.info

Track history (hours):
 
Tides and Currents Weather Stations Pressure Air Temp Water Temp Dewpoint Dewpoint Depression Visibility Wind Speed Wind Dir Waves Ship Positions

Salamandra

Last reported at 2017-Oct-06 15:42 UTC. Time now 2017-Dec-17 12:11 UTC.
Position N 45°30' E 036°48'.
Warning: this ship's position is months out of date.

Length 29 m; draft 1.4 m.

Type: Wing in ground effect craft. MMSI: 273336030.

Date/timePositionNaut miles runAvg speedWind from/ knotsBaromVisibWave heightAir tempDewpointWater temp
2017-Oct-06 15:42N 45°30' E 036°48'2 6.1
2017-Oct-06 15:25N 45°28' E 036°47'3 6.1
2017-Oct-06 15:00N 45°26' E 036°45'3 6.2
2017-Oct-06 14:30N 45°23' E 036°43'2 4.3
2017-Oct-06 14:00N 45°22' E 036°41'0 0.0
2017-Oct-06 13:30N 45°22' E 036°41'0 0.0
2017-Oct-06 13:00N 45°22' E 036°41'0 0.0
2017-Oct-06 12:31N 45°22' E 036°41'0 0.0
2017-Oct-06 12:00N 45°22' E 036°41'0 0.0
2017-Oct-06 11:29N 45°22' E 036°41'0 0.0
2017-Oct-06 11:00N 45°22' E 036°41'0 0.0
2017-Oct-06 10:30N 45°22' E 036°41'0 0.0
2017-Oct-06 10:00N 45°22' E 036°41'0 0.0
2017-Oct-06 09:30N 45°22' E 036°41'0 0.0
2017-Oct-06 09:00N 45°22' E 036°41'0 0.0
2017-Oct-06 08:31N 45°22' E 036°41'0 0.0
2017-Oct-06 08:00N 45°22' E 036°41'0 0.0
2017-Oct-06 07:30N 45°22' E 036°41'0 0.0
2017-Oct-06 07:00N 45°22' E 036°41'0 0.0
2017-Oct-06 06:30N 45°22' E 036°41'0 0.0
2017-Oct-06 06:00N 45°22' E 036°41'0 0.0
2017-Oct-06 05:29N 45°22' E 036°41'0 0.0
2017-Oct-06 05:00N 45°22' E 036°41'0 0.0
2017-Oct-06 04:30N 45°22' E 036°41'0 0.0
2017-Oct-06 04:00N 45°22' E 036°41'0 0.0
2017-Oct-06 03:29N 45°22' E 036°41'0 0.0
2017-Oct-06 03:00N 45°22' E 036°41'0 0.0
2017-Oct-06 02:29N 45°22' E 036°41'0 0.0
2017-Oct-06 02:01N 45°22' E 036°41'0 0.0
2017-Oct-06 01:29N 45°22' E 036°41'0 0.0
2017-Oct-06 01:00N 45°22' E 036°41'0 0.0
2017-Oct-06 00:30N 45°22' E 036°41'0 0.0
2017-Oct-06 00:00N 45°22' E 036°41'0 0.0
2017-Oct-05 23:29N 45°22' E 036°41'0 0.0
2017-Oct-05 23:00N 45°22' E 036°41'0 0.0
2017-Oct-05 22:30N 45°22' E 036°41'0 0.0
2017-Oct-05 22:00N 45°22' E 036°41'0 0.0
2017-Oct-05 21:30N 45°22' E 036°41'0 0.0
2017-Oct-05 21:00N 45°22' E 036°41'0 0.0
2017-Oct-05 20:29N 45°22' E 036°41'0 0.0
2017-Oct-05 20:00N 45°22' E 036°41'0 0.0
2017-Oct-05 19:30N 45°22' E 036°41'0 0.3
2017-Oct-05 19:00N 45°22' E 036°42'1 2.2
2017-Oct-05 18:30N 45°23' E 036°41'1 2.7
2017-Oct-05 18:00N 45°24' E 036°41'3 6.1
2017-Oct-05 17:30N 45°21' E 036°40'3 6.8
2017-Oct-05 17:00N 45°20' E 036°36'8 0.7
2017-Oct-05 06:15N 45°13' E 036°30'0 0.0
2017-Oct-05 05:51N 45°13' E 036°30'55 3.2
2017-Oct-04 12:36N 44°38' E 037°29'3 4.9
2017-Oct-04 11:56N 44°37' E 037°33'3 5.9
2017-Oct-04 11:27N 44°36' E 037°37'3 5.8
2017-Oct-04 11:00N 44°36' E 037°41'3 5.9
2017-Oct-04 10:30N 44°35' E 037°45'3 5.8
2017-Oct-04 10:00N 44°34' E 037°48'3 5.5
2017-Oct-04 09:30N 44°34' E 037°52'3 5.2
2017-Oct-04 09:00N 44°33' E 037°56'3 5.0
2017-Oct-04 08:30N 44°33' E 037°59'3 5.2
2017-Oct-04 08:00N 44°33' E 038°03'1 2.7
2017-Oct-04 07:30N 44°34' E 038°05'0 0.0
2017-Oct-04 07:00N 44°34' E 038°05'0 0.0
2017-Oct-04 06:30N 44°34' E 038°05'0 0.0
2017-Oct-04 06:00N 44°34' E 038°05'0 0.0
2017-Oct-04 05:30N 44°34' E 038°05'0 0.0
2017-Oct-04 05:00N 44°34' E 038°05'0 0.0
2017-Oct-04 04:30N 44°34' E 038°05'0 0.1
2017-Oct-04 04:00N 44°34' E 038°05'0 0.0
2017-Oct-04 03:30N 44°34' E 038°05'0 0.0
2017-Oct-04 03:00N 44°34' E 038°05'0 0.0
2017-Oct-04 02:30N 44°34' E 038°05'0 0.0
2017-Oct-04 02:00N 44°34' E 038°05'0 0.0
2017-Oct-04 01:30N 44°34' E 038°05'0 0.0
2017-Oct-04 01:00N 44°34' E 038°05'0 0.0
2017-Oct-04 00:30N 44°34' E 038°05'0 0.0
2017-Oct-04 00:00N 44°34' E 038°05'0 0.0
2017-Oct-03 23:30N 44°34' E 038°05'0 0.0
2017-Oct-03 23:00N 44°34' E 038°05'0 0.0
2017-Oct-03 22:30N 44°34' E 038°05'0 0.0
2017-Oct-03 22:00N 44°34' E 038°04'0 0.0
2017-Oct-03 21:30N 44°34' E 038°05'0 0.0
2017-Oct-03 21:00N 44°34' E 038°05'0 0.0
2017-Oct-03 20:30N 44°34' E 038°05'0 0.0
2017-Oct-03 20:00N 44°34' E 038°05'0 0.0
2017-Oct-03 19:30N 44°34' E 038°05'0 0.0
2017-Oct-03 19:00N 44°34' E 038°05'0 0.0
2017-Oct-03 18:30N 44°34' E 038°04'0 0.0
2017-Oct-03 18:00N 44°34' E 038°05'0 0.0
2017-Oct-03 17:30N 44°34' E 038°05'0 0.0
2017-Oct-03 17:00N 44°34' E 038°05'0 0.0
2017-Oct-03 16:30N 44°34' E 038°05'0 0.0
2017-Oct-03 16:00N 44°34' E 038°05'0 0.0
2017-Oct-03 15:30N 44°34' E 038°05'0 0.0
2017-Oct-03 15:00N 44°34' E 038°05'0 0.0
2017-Oct-03 14:00N 44°34' E 038°05'0 0.0
2017-Oct-03 13:30N 44°34' E 038°05'0 0.0
2017-Oct-03 13:00N 44°34' E 038°05'0 0.0
2017-Oct-03 12:30N 44°34' E 038°05'0 0.0
2017-Oct-03 12:00N 44°34' E 038°04'0 0.0
2017-Oct-03 11:30N 44°34' E 038°05'0 0.0
2017-Oct-03 11:01N 44°34' E 038°05'0 0.0
2017-Oct-03 10:30N 44°34' E 038°05'0 0.0
2017-Oct-03 10:00N 44°34' E 038°05'0 0.0
2017-Oct-03 09:30N 44°34' E 038°05'0 0.0
2017-Oct-03 09:01N 44°34' E 038°05'0 0.0
2017-Oct-03 08:30N 44°34' E 038°05'0 0.0
2017-Oct-03 08:01N 44°34' E 038°05'0 0.0
2017-Oct-03 07:30N 44°34' E 038°05'0 0.0
2017-Oct-03 07:01N 44°34' E 038°05'0 0.0
2017-Oct-03 06:30N 44°34' E 038°05'0 0.0
2017-Oct-03 06:01N 44°34' E 038°05'0 0.0
2017-Oct-03 05:31N 44°34' E 038°05'0 0.0
2017-Oct-03 05:01N 44°34' E 038°05'0 0.0
2017-Oct-03 04:30N 44°34' E 038°05'0 0.0
2017-Oct-03 04:01N 44°34' E 038°05'0 0.0
2017-Oct-03 03:31N 44°34' E 038°05'0 0.0
2017-Oct-03 03:01N 44°34' E 038°05'0 0.0
2017-Oct-03 02:31N 44°34' E 038°05'0 0.0
2017-Oct-03 02:00N 44°34' E 038°05'0 0.0
2017-Oct-03 01:31N 44°34' E 038°05'0 0.0
2017-Oct-03 01:01N 44°34' E 038°05'0 0.0
2017-Oct-03 00:30N 44°34' E 038°05'0 0.0
2017-Oct-03 00:01N 44°34' E 038°05'0 0.0
2017-Oct-02 23:31N 44°34' E 038°05'0 0.0
2017-Oct-02 23:01N 44°34' E 038°04'0 0.0
2017-Oct-02 22:31N 44°34' E 038°05'0 0.0
2017-Oct-02 22:01N 44°34' E 038°04'0 0.0
2017-Oct-02 21:30N 44°34' E 038°05'0 0.0
2017-Oct-02 21:00N 44°34' E 038°05'0 0.0
2017-Oct-02 20:30N 44°34' E 038°05'0 0.0
2017-Oct-02 20:00N 44°34' E 038°04'0 0.0
2017-Oct-02 19:30N 44°34' E 038°05'0 0.0
2017-Oct-02 19:00N 44°34' E 038°05'0 0.0
2017-Oct-02 18:30N 44°34' E 038°05'0 0.0
2017-Oct-02 18:00N 44°34' E 038°05'0 0.0
2017-Oct-02 17:30N 44°34' E 038°05'0 0.0
2017-Oct-02 17:00N 44°34' E 038°05'0 0.0
2017-Oct-02 16:30N 44°34' E 038°05'0 0.0
2017-Oct-02 16:00N 44°34' E 038°05'0 0.0
2017-Oct-02 15:30N 44°34' E 038°05'0 0.0
2017-Oct-02 15:00N 44°34' E 038°05'0 0.0
2017-Oct-02 14:30N 44°34' E 038°05'0 0.0
2017-Oct-02 14:00N 44°34' E 038°05'0 0.0
2017-Oct-02 13:30N 44°34' E 038°05'0 0.0
2017-Oct-02 13:00N 44°34' E 038°05'0 0.0
2017-Oct-02 12:30N 44°34' E 038°05'0 0.0
2017-Oct-02 12:00N 44°34' E 038°04'0 0.0
2017-Oct-02 11:30N 44°34' E 038°05'0 0.0
2017-Oct-02 11:00N 44°34' E 038°05'0 0.0
2017-Oct-02 10:30N 44°34' E 038°05'0 0.0
2017-Oct-02 10:00N 44°34' E 038°05'0 0.0
2017-Oct-02 09:30N 44°34' E 038°05'0 0.0
2017-Oct-02 09:00N 44°34' E 038°05'0 0.0
2017-Oct-02 08:30N 44°34' E 038°05'0 0.0
2017-Oct-02 08:00N 44°34' E 038°05'0 0.0
2017-Oct-02 07:30N 44°34' E 038°05'0 0.0
2017-Oct-02 07:00N 44°34' E 038°05'0 0.0
2017-Oct-02 06:30N 44°34' E 038°05'0 0.0
2017-Oct-02 06:00N 44°34' E 038°05'0 0.0
2017-Oct-02 05:30N 44°34' E 038°05'0 0.0
2017-Oct-02 05:00N 44°34' E 038°05'0 0.0
2017-Oct-02 04:30N 44°34' E 038°05'0 0.0
2017-Oct-02 04:00N 44°34' E 038°05'0 0.0
2017-Oct-02 03:30N 44°34' E 038°05'0 0.0
2017-Oct-02 03:01N 44°34' E 038°05'0 0.0
2017-Oct-02 02:30N 44°34' E 038°05'0 0.0
2017-Oct-02 02:00N 44°34' E 038°05'0 0.0
2017-Oct-02 01:29N 44°34' E 038°05'0 0.0
2017-Oct-02 01:00N 44°34' E 038°05'0 0.0
2017-Oct-02 00:31N 44°34' E 038°05'0 0.0
2017-Oct-02 00:00N 44°34' E 038°05'0 0.0
2017-Oct-01 23:30N 44°34' E 038°05'0 0.0
2017-Oct-01 23:00N 44°34' E 038°05'0 0.0
2017-Oct-01 22:30N 44°34' E 038°04'0 0.0
2017-Oct-01 22:00N 44°34' E 038°05'0 0.0
2017-Oct-01 21:29N 44°34' E 038°05'0 0.0
2017-Oct-01 21:00N 44°34' E 038°05'0 0.0
2017-Oct-01 20:29N 44°34' E 038°05'0 0.0
2017-Oct-01 20:00N 44°34' E 038°05'0 0.0
2017-Oct-01 19:30N 44°34' E 038°05'0 0.0
2017-Oct-01 19:00N 44°34' E 038°05'0 0.0
2017-Oct-01 18:30N 44°34' E 038°05'0 0.0
2017-Oct-01 18:00N 44°34' E 038°05'0 0.0
2017-Oct-01 17:29N 44°34' E 038°05'0 0.0
2017-Oct-01 17:00N 44°34' E 038°05'0 0.0
2017-Oct-01 16:31N 44°34' E 038°04'0 0.0
2017-Oct-01 16:00N 44°34' E 038°05'0 0.0
2017-Oct-01 15:30N 44°34' E 038°04'0 0.0
2017-Oct-01 15:00N 44°34' E 038°05'0 0.0
2017-Oct-01 14:29N 44°34' E 038°05'0 0.0
2017-Oct-01 14:00N 44°34' E 038°05'0 0.0
2017-Oct-01 13:30N 44°34' E 038°05'0 0.1
2017-Oct-01 13:00N 44°34' E 038°05'0 0.0
2017-Oct-01 12:31N 44°34' E 038°05'0 0.0
2017-Oct-01 11:59N 44°34' E 038°05'0 0.0
2017-Oct-01 11:29N 44°34' E 038°05'0 0.0
2017-Oct-01 11:00N 44°34' E 038°05'0 0.0
2017-Oct-01 10:30N 44°34' E 038°05'0 0.0
2017-Oct-01 10:01N 44°34' E 038°05'0 0.0
2017-Oct-01 09:29N 44°34' E 038°05'0 0.0
2017-Oct-01 09:01N 44°34' E 038°05'0 0.0
2017-Oct-01 08:30N 44°34' E 038°05'0 0.0
2017-Oct-01 08:00N 44°34' E 038°05'0 0.0
2017-Oct-01 07:31N 44°34' E 038°05'0 0.0
2017-Oct-01 07:01N 44°34' E 038°05'0 0.0
2017-Oct-01 06:30N 44°34' E 038°05'0 0.0
2017-Oct-01 06:01N 44°34' E 038°05'0 0.0
2017-Oct-01 05:31N 44°34' E 038°05'0 0.0
2017-Oct-01 05:00N 44°34' E 038°05'0 0.0
2017-Oct-01 04:31N 44°34' E 038°05'0 0.0
2017-Oct-01 04:00N 44°34' E 038°05'0 0.0
2017-Oct-01 03:31N 44°34' E 038°05'0 0.0
2017-Oct-01 03:01N 44°34' E 038°05'0 0.0
2017-Sep-30 02:01N 44°34' E 038°05'0 0.0
2017-Sep-30 01:30N 44°34' E 038°05'0 0.0
2017-Sep-30 01:01N 44°34' E 038°05'0 0.0
2017-Sep-30 00:31N 44°34' E 038°05'0 0.0
2017-Sep-30 00:01N 44°34' E 038°05'0 0.0
2017-Sep-29 23:30N 44°34' E 038°05'0 0.0
2017-Sep-29 23:01N 44°34' E 038°05'0 0.0
2017-Sep-29 22:31N 44°34' E 038°04'0 0.0
2017-Sep-29 22:00N 44°34' E 038°05'0 0.0
2017-Sep-29 21:30N 44°34' E 038°05'0 0.0
2017-Sep-29 21:00N 44°34' E 038°05'0 0.0
2017-Sep-29 20:30N 44°34' E 038°05'0 0.0
2017-Sep-29 20:00N 44°34' E 038°05'0 0.0
2017-Sep-29 19:30N 44°34' E 038°05'0 0.0
2017-Sep-29 19:00N 44°34' E 038°05'0 0.0
2017-Sep-29 18:30N 44°34' E 038°05'0 0.0
2017-Sep-29 18:00N 44°34' E 038°05'0 0.0
2017-Sep-29 17:30N 44°34' E 038°05'0 0.0
2017-Sep-29 17:00N 44°34' E 038°05'0 0.0
2017-Sep-29 16:30N 44°34' E 038°04'0 0.0
2017-Sep-29 16:00N 44°34' E 038°05'0 0.0
2017-Sep-29 15:30N 44°34' E 038°05'0 0.0
2017-Sep-29 15:01N 44°34' E 038°05'0 0.0
2017-Sep-29 14:30N 44°34' E 038°05'0 0.0
2017-Sep-29 14:00N 44°34' E 038°05'0 0.0
2017-Sep-29 13:31N 44°34' E 038°05'0 0.0
2017-Sep-29 13:00N 44°34' E 038°05'0 0.0
2017-Sep-29 12:30N 44°34' E 038°05'0 0.0
2017-Sep-29 12:00N 44°34' E 038°05'0 0.0
2017-Sep-29 11:30N 44°34' E 038°05'0 0.0
2017-Sep-29 11:00N 44°34' E 038°05'0 0.0
2017-Sep-29 10:31N 44°34' E 038°05'0 0.0
2017-Sep-29 10:00N 44°34' E 038°05'0 0.0
2017-Sep-29 09:31N 44°34' E 038°05'0 0.0
2017-Sep-29 09:01N 44°34' E 038°05'0 0.0
2017-Sep-29 08:30N 44°34' E 038°05'0 0.0
2017-Sep-29 08:01N 44°34' E 038°05'0 0.0
2017-Sep-29 07:30N 44°34' E 038°05'0 0.0
2017-Sep-29 07:00N 44°34' E 038°05'0 0.0
2017-Sep-29 06:31N 44°34' E 038°05'0 0.0
2017-Sep-29 06:00N 44°34' E 038°05'0 0.0
2017-Sep-29 05:31N 44°34' E 038°05'0 0.0
2017-Sep-29 05:01N 44°34' E 038°05'0 0.0
2017-Sep-29 04:31N 44°34' E 038°05'0 0.0
2017-Sep-29 04:00N 44°34' E 038°05'0 0.0
2017-Sep-29 03:31N 44°34' E 038°05'0 0.0
2017-Sep-29 03:00N 44°34' E 038°05'0 0.0
2017-Sep-29 02:30N 44°34' E 038°05'0 0.0
2017-Sep-29 02:00N 44°34' E 038°05'0 0.0
2017-Sep-29 01:30N 44°34' E 038°05'0 0.0
2017-Sep-29 01:00N 44°34' E 038°05'0 0.0
2017-Sep-29 00:30N 44°34' E 038°05'0 0.0
2017-Sep-29 00:00N 44°34' E 038°05'0 0.0
2017-Sep-28 23:30N 44°34' E 038°05'0 0.0
2017-Sep-28 23:01N 44°34' E 038°05'0 0.0
2017-Sep-28 22:30N 44°34' E 038°05'0 0.0
2017-Sep-28 22:00N 44°34' E 038°05'0 0.0
2017-Sep-28 21:30N 44°34' E 038°05'0 0.0
2017-Sep-28 21:00N 44°34' E 038°05'0 0.0
2017-Sep-28 20:30N 44°34' E 038°05'0 0.0
2017-Sep-28 20:00N 44°34' E 038°05'0 0.0
2017-Sep-28 19:30N 44°34' E 038°05'0 0.0
2017-Sep-28 19:01N 44°34' E 038°05'0 0.0
2017-Sep-28 18:30N 44°34' E 038°05'0 0.0
2017-Sep-28 18:00N 44°34' E 038°05'0 0.0
2017-Sep-28 17:30N 44°34' E 038°05'0 0.0
2017-Sep-28 17:00N 44°34' E 038°05'0 0.0
2017-Sep-28 16:30N 44°34' E 038°05'0 0.0
2017-Sep-28 16:00N 44°34' E 038°04'0 0.0
2017-Sep-28 15:30N 44°34' E 038°04'0 0.0
2017-Sep-28 15:01N 44°34' E 038°05'0 0.0
2017-Sep-28 14:30N 44°34' E 038°05'0 0.0
2017-Sep-28 14:01N 44°34' E 038°05'0 0.0
2017-Sep-28 13:30N 44°34' E 038°05'0 0.0
2017-Sep-28 13:00N 44°34' E 038°05'0 0.0
2017-Sep-28 12:30N 44°34' E 038°05'0 0.0
2017-Sep-28 12:00N 44°34' E 038°05'0 0.0
2017-Sep-28 11:30N 44°34' E 038°05'0 0.0
2017-Sep-28 11:00N 44°34' E 038°05'0 0.0
2017-Sep-28 10:30N 44°34' E 038°05'0 0.0
2017-Sep-28 10:00N 44°34' E 038°05'0 0.0
2017-Sep-28 09:30N 44°34' E 038°05'0 0.0
2017-Sep-28 09:01N 44°34' E 038°05'0 0.0
2017-Sep-28 08:30N 44°34' E 038°05'0 0.0
2017-Sep-28 08:00N 44°34' E 038°05'0 0.0
2017-Sep-28 07:30N 44°34' E 038°05'0 0.0
2017-Sep-28 07:00N 44°34' E 038°05'0 0.0
2017-Sep-28 06:30N 44°34' E 038°05'0 0.0
2017-Sep-28 06:00N 44°34' E 038°05'0 0.0
2017-Sep-28 05:30N 44°34' E 038°05'0 0.0
2017-Sep-28 05:01N 44°34' E 038°05'0 0.0
2017-Sep-28 04:30N 44°34' E 038°05'0 0.0
2017-Sep-28 04:00N 44°34' E 038°05'0 0.0
2017-Sep-28 03:30N 44°34' E 038°05'0 0.0
2017-Sep-28 03:00N 44°34' E 038°05'0 0.0
2017-Sep-28 02:30N 44°34' E 038°05'0 0.0
2017-Sep-28 02:00N 44°34' E 038°05'0 0.0
2017-Sep-28 01:30N 44°34' E 038°05'0 0.0
2017-Sep-28 01:00N 44°34' E 038°05'0 0.0
2017-Sep-28 00:30N 44°34' E 038°05'0 0.0
2017-Sep-27 23:59N 44°34' E 038°05'0 0.0
2017-Sep-27 23:30N 44°34' E 038°05'0 0.0
2017-Sep-27 22:59N 44°34' E 038°05'0 0.0
2017-Sep-27 22:30N 44°34' E 038°05'0 0.0
2017-Sep-27 22:00N 44°34' E 038°05'0 0.0
2017-Sep-27 21:30N 44°34' E 038°05'0 0.0
2017-Sep-27 21:00N 44°34' E 038°05'0 0.0
2017-Sep-27 20:29N 44°34' E 038°05'0 0.0
2017-Sep-27 20:00N 44°34' E 038°05'0 0.0
2017-Sep-27 19:30N 44°34' E 038°05'0 0.0
2017-Sep-27 18:59N 44°34' E 038°05'0 0.0
2017-Sep-27 18:31N 44°34' E 038°05'0 0.0
2017-Sep-27 18:00N 44°34' E 038°05'0 0.0
2017-Sep-27 17:30N 44°34' E 038°05'0 0.0
2017-Sep-27 17:00N 44°34' E 038°05'0 0.0
2017-Sep-27 16:30N 44°34' E 038°05'0 0.0
2017-Sep-27 16:00N 44°34' E 038°05'0 0.0
2017-Sep-27 15:30N 44°34' E 038°05'0 0.0
2017-Sep-27 15:00N 44°34' E 038°05'0 0.0
2017-Sep-27 14:30N 44°34' E 038°05'0 0.0
2017-Sep-27 14:00N 44°34' E 038°05'0 0.0
2017-Sep-27 13:31N 44°34' E 038°05'0 0.0
2017-Sep-27 13:00N 44°34' E 038°05'0 0.0
2017-Sep-27 12:30N 44°34' E 038°05'0 0.0
2017-Sep-27 11:59N 44°34' E 038°04'0 0.0
2017-Sep-27 11:29N 44°34' E 038°05'0 0.0
2017-Sep-27 11:00N 44°34' E 038°05'0 0.0
2017-Sep-27 10:30N 44°34' E 038°05'0 0.0
2017-Sep-27 10:00N 44°34' E 038°05'0 0.0
2017-Sep-27 09:30N 44°34' E 038°05'0 0.0
2017-Sep-27 09:00N 44°34' E 038°05'0 0.0
2017-Sep-27 08:30N 44°34' E 038°05'0 0.0
2017-Sep-27 07:59N 44°34' E 038°05'0 0.0
2017-Sep-27 07:30N 44°34' E 038°05'0 0.0
2017-Sep-27 07:00N 44°34' E 038°05'0 0.0
2017-Sep-27 06:30N 44°34' E 038°05'0 0.0
2017-Sep-27 06:00N 44°34' E 038°05'0 0.0
2017-Sep-27 05:31N 44°34' E 038°05'0 0.0
2017-Sep-27 05:00N 44°34' E 038°05'0 0.0
2017-Sep-27 04:30N 44°34' E 038°05'0 0.0
2017-Sep-27 04:00N 44°34' E 038°05'0 0.0
2017-Sep-27 03:30N 44°34' E 038°05'0 0.0
2017-Sep-27 03:00N 44°34' E 038°05'0 0.0
2017-Sep-27 02:30N 44°34' E 038°05'0 0.0
2017-Sep-27 02:00N 44°34' E 038°05'0 0.0
2017-Sep-27 01:30N 44°34' E 038°05'0 0.0
2017-Sep-27 01:00N 44°34' E 038°05'0 0.0
2017-Sep-27 00:30N 44°34' E 038°05'0 0.0
2017-Sep-27 00:00N 44°34' E 038°05'0 0.0
2017-Sep-26 23:30N 44°34' E 038°05'0 0.0
2017-Sep-26 23:00N 44°34' E 038°05'0 0.0
2017-Sep-26 22:30N 44°34' E 038°04'0 0.0
2017-Sep-26 22:00N 44°34' E 038°05'0 0.0
2017-Sep-26 21:30N 44°34' E 038°05'0 0.0
2017-Sep-26 21:00N 44°34' E 038°05'0 0.0
2017-Sep-26 20:30N 44°34' E 038°05'0 0.0
2017-Sep-26 20:01N 44°34' E 038°05'0 0.0
2017-Sep-26 19:31N 44°34' E 038°05'0 0.0
2017-Sep-26 19:00N 44°34' E 038°04'0 0.0
2017-Sep-26 18:30N 44°34' E 038°05'0 0.0
2017-Sep-26 18:00N 44°34' E 038°05'0 0.0
2017-Sep-26 17:30N 44°34' E 038°05'0 0.0
2017-Sep-26 17:00N 44°34' E 038°04'0 0.0
2017-Sep-26 16:30N 44°34' E 038°05'0 0.0
2017-Sep-26 16:00N 44°34' E 038°04'  
Track history (hours):
 
Tides and Currents Weather Stations Pressure Air Temp Water Temp Dewpoint Dewpoint Depression Visibility Wind Speed Wind Dir Waves Ship Positions

Salamandra

Last reported at 2017-Oct-06 15:42 UTC. Time now 2017-Dec-17 12:11 UTC.
Position N 45°30' E 036°48'.
Warning: this ship's position is months out of date.

Length 29 m; draft 1.4 m.

Type: Wing in ground effect craft. MMSI: 273336030.

Date/timePositionNaut miles runAvg speedWind from/ knotsBaromVisibWave heightAir tempDewpointWater temp
2017-Oct-06 15:42N 45°30' E 036°48'2 6.1
2017-Oct-06 15:25N 45°28' E 036°47'3 6.1
2017-Oct-06 15:00N 45°26' E 036°45'3 6.2
2017-Oct-06 14:30N 45°23' E 036°43'2 4.3
2017-Oct-06 14:00N 45°22' E 036°41'0 0.0
2017-Oct-06 13:30N 45°22' E 036°41'0 0.0
2017-Oct-06 13:00N 45°22' E 036°41'0 0.0
2017-Oct-06 12:31N 45°22' E 036°41'0 0.0
2017-Oct-06 12:00N 45°22' E 036°41'0 0.0
2017-Oct-06 11:29N 45°22' E 036°41'0 0.0
2017-Oct-06 11:00N 45°22' E 036°41'0 0.0
2017-Oct-06 10:30N 45°22' E 036°41'0 0.0
2017-Oct-06 10:00N 45°22' E 036°41'0 0.0
2017-Oct-06 09:30N 45°22' E 036°41'0 0.0
2017-Oct-06 09:00N 45°22' E 036°41'0 0.0
2017-Oct-06 08:31N 45°22' E 036°41'0 0.0
2017-Oct-06 08:00N 45°22' E 036°41'0 0.0
2017-Oct-06 07:30N 45°22' E 036°41'0 0.0
2017-Oct-06 07:00N 45°22' E 036°41'0 0.0
2017-Oct-06 06:30N 45°22' E 036°41'0 0.0
2017-Oct-06 06:00N 45°22' E 036°41'0 0.0
2017-Oct-06 05:29N 45°22' E 036°41'0 0.0
2017-Oct-06 05:00N 45°22' E 036°41'0 0.0
2017-Oct-06 04:30N 45°22' E 036°41'0 0.0
2017-Oct-06 04:00N 45°22' E 036°41'0 0.0
2017-Oct-06 03:29N 45°22' E 036°41'0 0.0
2017-Oct-06 03:00N 45°22' E 036°41'0 0.0
2017-Oct-06 02:29N 45°22' E 036°41'0 0.0
2017-Oct-06 02:01N 45°22' E 036°41'0 0.0
2017-Oct-06 01:29N 45°22' E 036°41'0 0.0
2017-Oct-06 01:00N 45°22' E 036°41'0 0.0
2017-Oct-06 00:30N 45°22' E 036°41'0 0.0
2017-Oct-06 00:00N 45°22' E 036°41'0 0.0
2017-Oct-05 23:29N 45°22' E 036°41'0 0.0
2017-Oct-05 23:00N 45°22' E 036°41'0 0.0
2017-Oct-05 22:30N 45°22' E 036°41'0 0.0
2017-Oct-05 22:00N 45°22' E 036°41'0 0.0
2017-Oct-05 21:30N 45°22' E 036°41'0 0.0
2017-Oct-05 21:00N 45°22' E 036°41'0 0.0
2017-Oct-05 20:29N 45°22' E 036°41'0 0.0
2017-Oct-05 20:00N 45°22' E 036°41'0 0.0
2017-Oct-05 19:30N 45°22' E 036°41'0 0.3
2017-Oct-05 19:00N 45°22' E 036°42'1 2.2
2017-Oct-05 18:30N 45°23' E 036°41'1 2.7
2017-Oct-05 18:00N 45°24' E 036°41'3 6.1
2017-Oct-05 17:30N 45°21' E 036°40'3 6.8
2017-Oct-05 17:00N 45°20' E 036°36'8 0.7
2017-Oct-05 06:15N 45°13' E 036°30'0 0.0
2017-Oct-05 05:51N 45°13' E 036°30'55 3.2
2017-Oct-04 12:36N 44°38' E 037°29'3 4.9
2017-Oct-04 11:56N 44°37' E 037°33'3 5.9
2017-Oct-04 11:27N 44°36' E 037°37'3 5.8
2017-Oct-04 11:00N 44°36' E 037°41'3 5.9
2017-Oct-04 10:30N 44°35' E 037°45'3 5.8
2017-Oct-04 10:00N 44°34' E 037°48'3 5.5
2017-Oct-04 09:30N 44°34' E 037°52'3 5.2
2017-Oct-04 09:00N 44°33' E 037°56'3 5.0
2017-Oct-04 08:30N 44°33' E 037°59'3 5.2
2017-Oct-04 08:00N 44°33' E 038°03'1 2.7
2017-Oct-04 07:30N 44°34' E 038°05'0 0.0
2017-Oct-04 07:00N 44°34' E 038°05'0 0.0
2017-Oct-04 06:30N 44°34' E 038°05'0 0.0
2017-Oct-04 06:00N 44°34' E 038°05'0 0.0
2017-Oct-04 05:30N 44°34' E 038°05'0 0.0
2017-Oct-04 05:00N 44°34' E 038°05'0 0.0
2017-Oct-04 04:30N 44°34' E 038°05'0 0.1
2017-Oct-04 04:00N 44°34' E 038°05'0 0.0
2017-Oct-04 03:30N 44°34' E 038°05'0 0.0
2017-Oct-04 03:00N 44°34' E 038°05'0 0.0
2017-Oct-04 02:30N 44°34' E 038°05'0 0.0
2017-Oct-04 02:00N 44°34' E 038°05'0 0.0
2017-Oct-04 01:30N 44°34' E 038°05'0 0.0
2017-Oct-04 01:00N 44°34' E 038°05'0 0.0
2017-Oct-04 00:30N 44°34' E 038°05'0 0.0
2017-Oct-04 00:00N 44°34' E 038°05'0 0.0
2017-Oct-03 23:30N 44°34' E 038°05'0 0.0
2017-Oct-03 23:00N 44°34' E 038°05'0 0.0
2017-Oct-03 22:30N 44°34' E 038°05'0 0.0
2017-Oct-03 22:00N 44°34' E 038°04'0 0.0
2017-Oct-03 21:30N 44°34' E 038°05'0 0.0
2017-Oct-03 21:00N 44°34' E 038°05'0 0.0
2017-Oct-03 20:30N 44°34' E 038°05'0 0.0
2017-Oct-03 20:00N 44°34' E 038°05'0 0.0
2017-Oct-03 19:30N 44°34' E 038°05'0 0.0
2017-Oct-03 19:00N 44°34' E 038°05'0 0.0
2017-Oct-03 18:30N 44°34' E 038°04'0 0.0
2017-Oct-03 18:00N 44°34' E 038°05'0 0.0
2017-Oct-03 17:30N 44°34' E 038°05'0 0.0
2017-Oct-03 17:00N 44°34' E 038°05'0 0.0
2017-Oct-03 16:30N 44°34' E 038°05'0 0.0
2017-Oct-03 16:00N 44°34' E 038°05'0 0.0
2017-Oct-03 15:30N 44°34' E 038°05'0 0.0
2017-Oct-03 15:00N 44°34' E 038°05'0 0.0
2017-Oct-03 14:00N 44°34' E 038°05'0 0.0
2017-Oct-03 13:30N 44°34' E 038°05'0 0.0
2017-Oct-03 13:00N 44°34' E 038°05'0 0.0
2017-Oct-03 12:30N 44°34' E 038°05'0 0.0
2017-Oct-03 12:00N 44°34' E 038°04'0 0.0
2017-Oct-03 11:30N 44°34' E 038°05'0 0.0
2017-Oct-03 11:01N 44°34' E 038°05'0 0.0
2017-Oct-03 10:30N 44°34' E 038°05'0 0.0
2017-Oct-03 10:00N 44°34' E 038°05'0 0.0
2017-Oct-03 09:30N 44°34' E 038°05'0 0.0
2017-Oct-03 09:01N 44°34' E 038°05'0 0.0
2017-Oct-03 08:30N 44°34' E 038°05'0 0.0
2017-Oct-03 08:01N 44°34' E 038°05'0 0.0
2017-Oct-03 07:30N 44°34' E 038°05'0 0.0
2017-Oct-03 07:01N 44°34' E 038°05'0 0.0
2017-Oct-03 06:30N 44°34' E 038°05'0 0.0
2017-Oct-03 06:01N 44°34' E 038°05'0 0.0
2017-Oct-03 05:31N 44°34' E 038°05'0 0.0
2017-Oct-03 05:01N 44°34' E 038°05'0 0.0
2017-Oct-03 04:30N 44°34' E 038°05'0 0.0
2017-Oct-03 04:01N 44°34' E 038°05'0 0.0
2017-Oct-03 03:31N 44°34' E 038°05'0 0.0
2017-Oct-03 03:01N 44°34' E 038°05'0 0.0
2017-Oct-03 02:31N 44°34' E 038°05'0 0.0
2017-Oct-03 02:00N 44°34' E 038°05'0 0.0
2017-Oct-03 01:31N 44°34' E 038°05'0 0.0
2017-Oct-03 01:01N 44°34' E 038°05'0 0.0
2017-Oct-03 00:30N 44°34' E 038°05'0 0.0
2017-Oct-03 00:01N 44°34' E 038°05'0 0.0
2017-Oct-02 23:31N 44°34' E 038°05'0 0.0
2017-Oct-02 23:01N 44°34' E 038°04'0 0.0
2017-Oct-02 22:31N 44°34' E 038°05'0 0.0
2017-Oct-02 22:01N 44°34' E 038°04'0 0.0
2017-Oct-02 21:30N 44°34' E 038°05'0 0.0
2017-Oct-02 21:00N 44°34' E 038°05'0 0.0
2017-Oct-02 20:30N 44°34' E 038°05'0 0.0
2017-Oct-02 20:00N 44°34' E 038°04'0 0.0
2017-Oct-02 19:30N 44°34' E 038°05'0 0.0
2017-Oct-02 19:00N 44°34' E 038°05'0 0.0
2017-Oct-02 18:30N 44°34' E 038°05'0 0.0
2017-Oct-02 18:00N 44°34' E 038°05'0 0.0
2017-Oct-02 17:30N 44°34' E 038°05'0 0.0
2017-Oct-02 17:00N 44°34' E 038°05'0 0.0
2017-Oct-02 16:30N 44°34' E 038°05'0 0.0
2017-Oct-02 16:00N 44°34' E 038°05'0 0.0
2017-Oct-02 15:30N 44°34' E 038°05'0 0.0
2017-Oct-02 15:00N 44°34' E 038°05'0 0.0
2017-Oct-02 14:30N 44°34' E 038°05'0 0.0
2017-Oct-02 14:00N 44°34' E 038°05'0 0.0
2017-Oct-02 13:30N 44°34' E 038°05'0 0.0
2017-Oct-02 13:00N 44°34' E 038°05'0 0.0
2017-Oct-02 12:30N 44°34' E 038°05'0 0.0
2017-Oct-02 12:00N 44°34' E 038°04'0 0.0
2017-Oct-02 11:30N 44°34' E 038°05'0 0.0
2017-Oct-02 11:00N 44°34' E 038°05'0 0.0
2017-Oct-02 10:30N 44°34' E 038°05'0 0.0
2017-Oct-02 10:00N 44°34' E 038°05'0 0.0
2017-Oct-02 09:30N 44°34' E 038°05'0 0.0
2017-Oct-02 09:00N 44°34' E 038°05'0 0.0
2017-Oct-02 08:30N 44°34' E 038°05'0 0.0
2017-Oct-02 08:00N 44°34' E 038°05'0 0.0
2017-Oct-02 07:30N 44°34' E 038°05'0 0.0
2017-Oct-02 07:00N 44°34' E 038°05'0 0.0
2017-Oct-02 06:30N 44°34' E 038°05'0 0.0
2017-Oct-02 06:00N 44°34' E 038°05'0 0.0
2017-Oct-02 05:30N 44°34' E 038°05'0 0.0
2017-Oct-02 05:00N 44°34' E 038°05'0 0.0
2017-Oct-02 04:30N 44°34' E 038°05'0 0.0
2017-Oct-02 04:00N 44°34' E 038°05'0 0.0
2017-Oct-02 03:30N 44°34' E 038°05'0 0.0
2017-Oct-02 03:01N 44°34' E 038°05'0 0.0
2017-Oct-02 02:30N 44°34' E 038°05'0 0.0
2017-Oct-02 02:00N 44°34' E 038°05'0 0.0
2017-Oct-02 01:29N 44°34' E 038°05'0 0.0
2017-Oct-02 01:00N 44°34' E 038°05'0 0.0
2017-Oct-02 00:31N 44°34' E 038°05'0 0.0
2017-Oct-02 00:00N 44°34' E 038°05'0 0.0
2017-Oct-01 23:30N 44°34' E 038°05'0 0.0
2017-Oct-01 23:00N 44°34' E 038°05'0 0.0
2017-Oct-01 22:30N 44°34' E 038°04'0 0.0
2017-Oct-01 22:00N 44°34' E 038°05'0 0.0
2017-Oct-01 21:29N 44°34' E 038°05'0 0.0
2017-Oct-01 21:00N 44°34' E 038°05'0 0.0
2017-Oct-01 20:29N 44°34' E 038°05'0 0.0
2017-Oct-01 20:00N 44°34' E 038°05'0 0.0
2017-Oct-01 19:30N 44°34' E 038°05'0 0.0
2017-Oct-01 19:00N 44°34' E 038°05'0 0.0
2017-Oct-01 18:30N 44°34' E 038°05'0 0.0
2017-Oct-01 18:00N 44°34' E 038°05'0 0.0
2017-Oct-01 17:29N 44°34' E 038°05'0 0.0
2017-Oct-01 17:00N 44°34' E 038°05'0 0.0
2017-Oct-01 16:31N 44°34' E 038°04'0 0.0
2017-Oct-01 16:00N 44°34' E 038°05'0 0.0
2017-Oct-01 15:30N 44°34' E 038°04'0 0.0
2017-Oct-01 15:00N 44°34' E 038°05'0 0.0
2017-Oct-01 14:29N 44°34' E 038°05'0 0.0
2017-Oct-01 14:00N 44°34' E 038°05'0 0.0
2017-Oct-01 13:30N 44°34' E 038°05'0 0.1
2017-Oct-01 13:00N 44°34' E 038°05'0 0.0
2017-Oct-01 12:31N 44°34' E 038°05'0 0.0
2017-Oct-01 11:59N 44°34' E 038°05'0 0.0
2017-Oct-01 11:29N 44°34' E 038°05'0 0.0
2017-Oct-01 11:00N 44°34' E 038°05'0 0.0
2017-Oct-01 10:30N 44°34' E 038°05'0 0.0
2017-Oct-01 10:01N 44°34' E 038°05'0 0.0
2017-Oct-01 09:29N 44°34' E 038°05'0 0.0
2017-Oct-01 09:01N 44°34' E 038°05'0 0.0
2017-Oct-01 08:30N 44°34' E 038°05'0 0.0
2017-Oct-01 08:00N 44°34' E 038°05'0 0.0
2017-Oct-01 07:31N 44°34' E 038°05'0 0.0
2017-Oct-01 07:01N 44°34' E 038°05'0 0.0
2017-Oct-01 06:30N 44°34' E 038°05'0 0.0
2017-Oct-01 06:01N 44°34' E 038°05'0 0.0
2017-Oct-01 05:31N 44°34' E 038°05'0 0.0
2017-Oct-01 05:00N 44°34' E 038°05'0 0.0
2017-Oct-01 04:31N 44°34' E 038°05'0 0.0
2017-Oct-01 04:00N 44°34' E 038°05'0 0.0
2017-Oct-01 03:31N 44°34' E 038°05'0 0.0
2017-Oct-01 03:01N 44°34' E 038°05'0 0.0
2017-Sep-30 02:01N 44°34' E 038°05'0 0.0
2017-Sep-30 01:30N 44°34' E 038°05'0 0.0
2017-Sep-30 01:01N 44°34' E 038°05'0 0.0
2017-Sep-30 00:31N 44°34' E 038°05'0 0.0
2017-Sep-30 00:01N 44°34' E 038°05'0 0.0
2017-Sep-29 23:30N 44°34' E 038°05'0 0.0
2017-Sep-29 23:01N 44°34' E 038°05'0 0.0
2017-Sep-29 22:31N 44°34' E 038°04'0 0.0
2017-Sep-29 22:00N 44°34' E 038°05'0 0.0
2017-Sep-29 21:30N 44°34' E 038°05'0 0.0
2017-Sep-29 21:00N 44°34' E 038°05'0 0.0
2017-Sep-29 20:30N 44°34' E 038°05'0 0.0
2017-Sep-29 20:00N 44°34' E 038°05'0 0.0
2017-Sep-29 19:30N 44°34' E 038°05'0 0.0
2017-Sep-29 19:00N 44°34' E 038°05'0 0.0
2017-Sep-29 18:30N 44°34' E 038°05'0 0.0
2017-Sep-29 18:00N 44°34' E 038°05'0 0.0
2017-Sep-29 17:30N 44°34' E 038°05'0 0.0
2017-Sep-29 17:00N 44°34' E 038°05'0 0.0
2017-Sep-29 16:30N 44°34' E 038°04'0 0.0
2017-Sep-29 16:00N 44°34' E 038°05'0 0.0
2017-Sep-29 15:30N 44°34' E 038°05'0 0.0
2017-Sep-29 15:01N 44°34' E 038°05'0 0.0
2017-Sep-29 14:30N 44°34' E 038°05'0 0.0
2017-Sep-29 14:00N 44°34' E 038°05'0 0.0
2017-Sep-29 13:31N 44°34' E 038°05'0 0.0
2017-Sep-29 13:00N 44°34' E 038°05'0 0.0
2017-Sep-29 12:30N 44°34' E 038°05'0 0.0
2017-Sep-29 12:00N 44°34' E 038°05'0 0.0
2017-Sep-29 11:30N 44°34' E 038°05'0 0.0
2017-Sep-29 11:00N 44°34' E 038°05'0 0.0
2017-Sep-29 10:31N 44°34' E 038°05'0 0.0
2017-Sep-29 10:00N 44°34' E 038°05'0 0.0
2017-Sep-29 09:31N 44°34' E 038°05'0 0.0
2017-Sep-29 09:01N 44°34' E 038°05'0 0.0
2017-Sep-29 08:30N 44°34' E 038°05'0 0.0
2017-Sep-29 08:01N 44°34' E 038°05'0 0.0
2017-Sep-29 07:30N 44°34' E 038°05'0 0.0
2017-Sep-29 07:00N 44°34' E 038°05'0 0.0
2017-Sep-29 06:31N 44°34' E 038°05'0 0.0
2017-Sep-29 06:00N 44°34' E 038°05'0 0.0
2017-Sep-29 05:31N 44°34' E 038°05'0 0.0
2017-Sep-29 05:01N 44°34' E 038°05'0 0.0
2017-Sep-29 04:31N 44°34' E 038°05'0 0.0
2017-Sep-29 04:00N 44°34' E 038°05'0 0.0
2017-Sep-29 03:31N 44°34' E 038°05'0 0.0
2017-Sep-29 03:00N 44°34' E 038°05'0 0.0
2017-Sep-29 02:30N 44°34' E 038°05'0 0.0
2017-Sep-29 02:00N 44°34' E 038°05'0 0.0
2017-Sep-29 01:30N 44°34' E 038°05'0 0.0
2017-Sep-29 01:00N 44°34' E 038°05'0 0.0
2017-Sep-29 00:30N 44°34' E 038°05'0 0.0
2017-Sep-29 00:00N 44°34' E 038°05'0 0.0
2017-Sep-28 23:30N 44°34' E 038°05'0 0.0
2017-Sep-28 23:01N 44°34' E 038°05'0 0.0
2017-Sep-28 22:30N 44°34' E 038°05'0 0.0
2017-Sep-28 22:00N 44°34' E 038°05'0 0.0
2017-Sep-28 21:30N 44°34' E 038°05'0 0.0
2017-Sep-28 21:00N 44°34' E 038°05'0 0.0
2017-Sep-28 20:30N 44°34' E 038°05'0 0.0
2017-Sep-28 20:00N 44°34' E 038°05'0 0.0
2017-Sep-28 19:30N 44°34' E 038°05'0 0.0
2017-Sep-28 19:01N 44°34' E 038°05'0 0.0
2017-Sep-28 18:30N 44°34' E 038°05'0 0.0
2017-Sep-28 18:00N 44°34' E 038°05'0 0.0
2017-Sep-28 17:30N 44°34' E 038°05'0 0.0
2017-Sep-28 17:00N 44°34' E 038°05'0 0.0
2017-Sep-28 16:30N 44°34' E 038°05'0 0.0
2017-Sep-28 16:00N 44°34' E 038°04'0 0.0
2017-Sep-28 15:30N 44°34' E 038°04'0 0.0
2017-Sep-28 15:01N 44°34' E 038°05'0 0.0
2017-Sep-28 14:30N 44°34' E 038°05'0 0.0
2017-Sep-28 14:01N 44°34' E 038°05'0 0.0
2017-Sep-28 13:30N 44°34' E 038°05'0 0.0
2017-Sep-28 13:00N 44°34' E 038°05'0 0.0
2017-Sep-28 12:30N 44°34' E 038°05'0 0.0
2017-Sep-28 12:00N 44°34' E 038°05'0 0.0
2017-Sep-28 11:30N 44°34' E 038°05'0 0.0
2017-Sep-28 11:00N 44°34' E 038°05'0 0.0
2017-Sep-28 10:30N 44°34' E 038°05'0 0.0
2017-Sep-28 10:00N 44°34' E 038°05'0 0.0
2017-Sep-28 09:30N 44°34' E 038°05'0 0.0
2017-Sep-28 09:01N 44°34' E 038°05'0 0.0
2017-Sep-28 08:30N 44°34' E 038°05'0 0.0
2017-Sep-28 08:00N 44°34' E 038°05'0 0.0
2017-Sep-28 07:30N 44°34' E 038°05'0 0.0
2017-Sep-28 07:00N 44°34' E 038°05'0 0.0
2017-Sep-28 06:30N 44°34' E 038°05'0 0.0
2017-Sep-28 06:00N 44°34' E 038°05'0 0.0
2017-Sep-28 05:30N 44°34' E 038°05'0 0.0
2017-Sep-28 05:01N 44°34' E 038°05'0 0.0
2017-Sep-28 04:30N 44°34' E 038°05'0 0.0
2017-Sep-28 04:00N 44°34' E 038°05'0 0.0
2017-Sep-28 03:30N 44°34' E 038°05'0 0.0
2017-Sep-28 03:00N 44°34' E 038°05'0 0.0
2017-Sep-28 02:30N 44°34' E 038°05'0 0.0
2017-Sep-28 02:00N 44°34' E 038°05'0 0.0
2017-Sep-28 01:30N 44°34' E 038°05'0 0.0
2017-Sep-28 01:00N 44°34' E 038°05'0 0.0
2017-Sep-28 00:30N 44°34' E 038°05'0 0.0
2017-Sep-27 23:59N 44°34' E 038°05'0 0.0
2017-Sep-27 23:30N 44°34' E 038°05'0 0.0
2017-Sep-27 22:59N 44°34' E 038°05'0 0.0
2017-Sep-27 22:30N 44°34' E 038°05'0 0.0
2017-Sep-27 22:00N 44°34' E 038°05'0 0.0
2017-Sep-27 21:30N 44°34' E 038°05'0 0.0
2017-Sep-27 21:00N 44°34' E 038°05'0 0.0
2017-Sep-27 20:29N 44°34' E 038°05'0 0.0
2017-Sep-27 20:00N 44°34' E 038°05'0 0.0
2017-Sep-27 19:30N 44°34' E 038°05'0 0.0
2017-Sep-27 18:59N 44°34' E 038°05'0 0.0
2017-Sep-27 18:31N 44°34' E 038°05'0 0.0
2017-Sep-27 18:00N 44°34' E 038°05'0 0.0
2017-Sep-27 17:30N 44°34' E 038°05'0 0.0
2017-Sep-27 17:00N 44°34' E 038°05'0 0.0
2017-Sep-27 16:30N 44°34' E 038°05'0 0.0
2017-Sep-27 16:00N 44°34' E 038°05'0 0.0
2017-Sep-27 15:30N 44°34' E 038°05'0 0.0
2017-Sep-27 15:00N 44°34' E 038°05'0 0.0
2017-Sep-27 14:30N 44°34' E 038°05'0 0.0
2017-Sep-27 14:00N 44°34' E 038°05'0 0.0
2017-Sep-27 13:31N 44°34' E 038°05'0 0.0
2017-Sep-27 13:00N 44°34' E 038°05'0 0.0
2017-Sep-27 12:30N 44°34' E 038°05'0 0.0
2017-Sep-27 11:59N 44°34' E 038°04'0 0.0
2017-Sep-27 11:29N 44°34' E 038°05'0 0.0
2017-Sep-27 11:00N 44°34' E 038°05'0 0.0
2017-Sep-27 10:30N 44°34' E 038°05'0 0.0
2017-Sep-27 10:00N 44°34' E 038°05'0 0.0
2017-Sep-27 09:30N 44°34' E 038°05'0 0.0
2017-Sep-27 09:00N 44°34' E 038°05'0 0.0
2017-Sep-27 08:30N 44°34' E 038°05'0 0.0
2017-Sep-27 07:59N 44°34' E 038°05'0 0.0
2017-Sep-27 07:30N 44°34' E 038°05'0 0.0
2017-Sep-27 07:00N 44°34' E 038°05'0 0.0
2017-Sep-27 06:30N 44°34' E 038°05'0 0.0
2017-Sep-27 06:00N 44°34' E 038°05'0 0.0
2017-Sep-27 05:31N 44°34' E 038°05'0 0.0
2017-Sep-27 05:00N 44°34' E 038°05'0 0.0
2017-Sep-27 04:30N 44°34' E 038°05'0 0.0
2017-Sep-27 04:00N 44°34' E 038°05'0 0.0
2017-Sep-27 03:30N 44°34' E 038°05'0 0.0
2017-Sep-27 03:00N 44°34' E 038°05'0 0.0
2017-Sep-27 02:30N 44°34' E 038°05'0 0.0
2017-Sep-27 02:00N 44°34' E 038°05'0 0.0
2017-Sep-27 01:30N 44°34' E 038°05'0 0.0
2017-Sep-27 01:00N 44°34' E 038°05'0 0.0
2017-Sep-27 00:30N 44°34' E 038°05'0 0.0
2017-Sep-27 00:00N 44°34' E 038°05'0 0.0
2017-Sep-26 23:30N 44°34' E 038°05'0 0.0
2017-Sep-26 23:00N 44°34' E 038°05'0 0.0
2017-Sep-26 22:30N 44°34' E 038°04'0 0.0
2017-Sep-26 22:00N 44°34' E 038°05'0 0.0
2017-Sep-26 21:30N 44°34' E 038°05'0 0.0
2017-Sep-26 21:00N 44°34' E 038°05'0 0.0
2017-Sep-26 20:30N 44°34' E 038°05'0 0.0
2017-Sep-26 20:01N 44°34' E 038°05'0 0.0
2017-Sep-26 19:31N 44°34' E 038°05'0 0.0
2017-Sep-26 19:00N 44°34' E 038°04'0 0.0
2017-Sep-26 18:30N 44°34' E 038°05'0 0.0
2017-Sep-26 18:00N 44°34' E 038°05'0 0.0
2017-Sep-26 17:30N 44°34' E 038°05'0 0.0
2017-Sep-26 17:00N 44°34' E 038°04'0 0.0
2017-Sep-26 16:30N 44°34' E 038°05'0 0.0
2017-Sep-26 16:00N 44°34' E 038°04'  

Dump ship's entire track history